sensor_id;sensor_type;location;lat;lon;timestamp;P1;durP1;ratioP1;P2;durP2;ratioP2
1010;SDS011;494;48.744;10.106;2024-02-21T00:01:14;901.73;;;746.83;;
1010;SDS011;494;48.744;10.106;2024-02-21T00:03:44;864.90;;;714.87;;
1010;SDS011;494;48.744;10.106;2024-02-21T00:06:12;953.13;;;779.23;;
1010;SDS011;494;48.744;10.106;2024-02-21T00:08:43;977.00;;;777.20;;
1010;SDS011;494;48.744;10.106;2024-02-21T00:11:11;940.90;;;773.10;;
1010;SDS011;494;48.744;10.106;2024-02-21T00:13:40;933.00;;;772.00;;
1010;SDS011;494;48.744;10.106;2024-02-21T00:16:09;952.40;;;769.07;;
1010;SDS011;494;48.744;10.106;2024-02-21T00:18:38;931.13;;;779.60;;
1010;SDS011;494;48.744;10.106;2024-02-21T00:21:07;903.73;;;758.17;;
1010;SDS011;494;48.744;10.106;2024-02-21T00:23:36;927.67;;;763.17;;
1010;SDS011;494;48.744;10.106;2024-02-21T00:26:08;912.33;;;761.13;;
1010;SDS011;494;48.744;10.106;2024-02-21T00:28:37;912.07;;;740.63;;
1010;SDS011;494;48.744;10.106;2024-02-21T00:31:06;949.67;;;781.87;;
1010;SDS011;494;48.744;10.106;2024-02-21T00:33:35;807.37;;;687.70;;
1010;SDS011;494;48.744;10.106;2024-02-21T00:36:05;935.80;;;764.73;;
1010;SDS011;494;48.744;10.106;2024-02-21T00:38:34;881.50;;;735.93;;
1010;SDS011;494;48.744;10.106;2024-02-21T00:41:03;926.53;;;764.63;;
1010;SDS011;494;48.744;10.106;2024-02-21T00:43:33;918.17;;;753.17;;
1010;SDS011;494;48.744;10.106;2024-02-21T00:46:05;902.77;;;758.23;;
1010;SDS011;494;48.744;10.106;2024-02-21T00:48:34;877.70;;;737.93;;
1010;SDS011;494;48.744;10.106;2024-02-21T00:51:03;905.23;;;765.07;;
1010;SDS011;494;48.744;10.106;2024-02-21T00:53:32;870.17;;;732.37;;
1010;SDS011;494;48.744;10.106;2024-02-21T00:56:00;924.03;;;779.47;;
1010;SDS011;494;48.744;10.106;2024-02-21T00:58:30;904.13;;;755.63;;
1010;SDS011;494;48.744;10.106;2024-02-21T01:01:01;943.23;;;767.63;;
1010;SDS011;494;48.744;10.106;2024-02-21T01:03:30;855.80;;;721.43;;
1010;SDS011;494;48.744;10.106;2024-02-21T01:05:59;931.17;;;787.23;;
1010;SDS011;494;48.744;10.106;2024-02-21T01:08:28;893.67;;;761.60;;
1010;SDS011;494;48.744;10.106;2024-02-21T01:10:56;900.03;;;750.70;;
1010;SDS011;494;48.744;10.106;2024-02-21T01:13:25;865.80;;;725.23;;
1010;SDS011;494;48.744;10.106;2024-02-21T01:15:54;888.77;;;762.03;;
1010;SDS011;494;48.744;10.106;2024-02-21T01:18:24;948.43;;;776.00;;
1010;SDS011;494;48.744;10.106;2024-02-21T01:20:53;856.50;;;735.97;;
1010;SDS011;494;48.744;10.106;2024-02-21T01:23:22;975.43;;;798.73;;
1010;SDS011;494;48.744;10.106;2024-02-21T01:25:51;925.07;;;746.57;;
1010;SDS011;494;48.744;10.106;2024-02-21T01:28:21;933.33;;;762.83;;
1010;SDS011;494;48.744;10.106;2024-02-21T01:30:50;916.53;;;742.17;;
1010;SDS011;494;48.744;10.106;2024-02-21T01:33:19;858.80;;;719.67;;
1010;SDS011;494;48.744;10.106;2024-02-21T01:35:49;884.50;;;739.80;;
1010;SDS011;494;48.744;10.106;2024-02-21T01:38:18;881.43;;;730.77;;
1010;SDS011;494;48.744;10.106;2024-02-21T01:40:47;901.13;;;747.00;;
1010;SDS011;494;48.744;10.106;2024-02-21T01:43:16;891.43;;;754.90;;
1010;SDS011;494;48.744;10.106;2024-02-21T01:45:49;939.27;;;760.53;;
1010;SDS011;494;48.744;10.106;2024-02-21T01:48:20;904.17;;;760.50;;
1010;SDS011;494;48.744;10.106;2024-02-21T01:50:53;934.67;;;772.90;;
1010;SDS011;494;48.744;10.106;2024-02-21T01:53:23;951.23;;;771.97;;
1010;SDS011;494;48.744;10.106;2024-02-21T01:55:57;912.63;;;760.53;;
1010;SDS011;494;48.744;10.106;2024-02-21T01:58:26;909.23;;;755.40;;
1010;SDS011;494;48.744;10.106;2024-02-21T02:00:57;952.23;;;789.67;;
1010;SDS011;494;48.744;10.106;2024-02-21T02:03:27;906.47;;;761.87;;
1010;SDS011;494;48.744;10.106;2024-02-21T02:05:58;924.30;;;776.20;;
1010;SDS011;494;48.744;10.106;2024-02-21T02:08:28;920.50;;;767.63;;
1010;SDS011;494;48.744;10.106;2024-02-21T02:10:56;921.53;;;776.43;;
1010;SDS011;494;48.744;10.106;2024-02-21T02:13:26;931.73;;;783.30;;
1010;SDS011;494;48.744;10.106;2024-02-21T02:15:55;852.60;;;720.70;;
1010;SDS011;494;48.744;10.106;2024-02-21T02:18:24;892.87;;;744.50;;
1010;SDS011;494;48.744;10.106;2024-02-21T02:20:53;904.27;;;760.40;;
1010;SDS011;494;48.744;10.106;2024-02-21T02:23:24;910.80;;;749.87;;
1010;SDS011;494;48.744;10.106;2024-02-21T02:25:54;973.77;;;796.57;;
1010;SDS011;494;48.744;10.106;2024-02-21T02:28:22;948.73;;;770.10;;
1010;SDS011;494;48.744;10.106;2024-02-21T02:30:52;919.23;;;767.03;;
1010;SDS011;494;48.744;10.106;2024-02-21T02:33:20;882.00;;;726.30;;
1010;SDS011;494;48.744;10.106;2024-02-21T02:35:49;860.43;;;720.73;;
1010;SDS011;494;48.744;10.106;2024-02-21T02:38:18;924.23;;;761.03;;
1010;SDS011;494;48.744;10.106;2024-02-21T02:40:48;927.37;;;766.43;;
1010;SDS011;494;48.744;10.106;2024-02-21T02:43:17;906.20;;;732.00;;
1010;SDS011;494;48.744;10.106;2024-02-21T02:45:46;948.60;;;778.40;;
1010;SDS011;494;48.744;10.106;2024-02-21T02:48:15;891.27;;;744.80;;
1010;SDS011;494;48.744;10.106;2024-02-21T02:50:43;922.07;;;757.13;;
1010;SDS011;494;48.744;10.106;2024-02-21T02:53:12;876.93;;;728.10;;
1010;SDS011;494;48.744;10.106;2024-02-21T02:55:41;929.23;;;784.07;;
1010;SDS011;494;48.744;10.106;2024-02-21T02:58:11;978.03;;;792.33;;
1010;SDS011;494;48.744;10.106;2024-02-21T03:00:40;982.60;;;779.27;;
1010;SDS011;494;48.744;10.106;2024-02-21T03:03:10;979.47;;;769.77;;
1010;SDS011;494;48.744;10.106;2024-02-21T03:05:39;1029.87;;;796.53;;
1010;SDS011;494;48.744;10.106;2024-02-21T03:08:08;939.83;;;769.90;;
1010;SDS011;494;48.744;10.106;2024-02-21T03:10:36;945.53;;;768.53;;
1010;SDS011;494;48.744;10.106;2024-02-21T03:13:05;980.30;;;768.07;;
1010;SDS011;494;48.744;10.106;2024-02-21T03:15:36;990.77;;;780.03;;
1010;SDS011;494;48.744;10.106;2024-02-21T03:18:04;951.43;;;766.87;;
1010;SDS011;494;48.744;10.106;2024-02-21T03:20:33;1040.53;;;814.77;;
1010;SDS011;494;48.744;10.106;2024-02-21T03:23:02;973.17;;;774.77;;
1010;SDS011;494;48.744;10.106;2024-02-21T03:25:31;1067.90;;;833.97;;
1010;SDS011;494;48.744;10.106;2024-02-21T03:28:00;1106.27;;;856.60;;
1010;SDS011;494;48.744;10.106;2024-02-21T03:30:30;955.73;;;771.90;;
1010;SDS011;494;48.744;10.106;2024-02-21T03:33:02;1069.53;;;828.57;;
1010;SDS011;494;48.744;10.106;2024-02-21T03:35:31;959.03;;;783.50;;
1010;SDS011;494;48.744;10.106;2024-02-21T03:38:00;938.30;;;748.40;;
1010;SDS011;494;48.744;10.106;2024-02-21T03:40:30;1044.77;;;819.20;;
1010;SDS011;494;48.744;10.106;2024-02-21T03:42:59;1010.53;;;833.80;;
1010;SDS011;494;48.744;10.106;2024-02-21T03:45:27;943.00;;;775.30;;
1010;SDS011;494;48.744;10.106;2024-02-21T03:47:56;953.83;;;780.37;;
1010;SDS011;494;48.744;10.106;2024-02-21T03:50:27;977.37;;;812.77;;
1010;SDS011;494;48.744;10.106;2024-02-21T03:52:56;896.40;;;764.47;;
1010;SDS011;494;48.744;10.106;2024-02-21T03:55:25;997.50;;;806.37;;
1010;SDS011;494;48.744;10.106;2024-02-21T03:57:54;966.83;;;790.40;;
1010;SDS011;494;48.744;10.106;2024-02-21T04:00:23;896.47;;;759.17;;
1010;SDS011;494;48.744;10.106;2024-02-21T04:02:52;994.87;;;818.23;;
1010;SDS011;494;48.744;10.106;2024-02-21T04:05:22;881.50;;;758.00;;
1010;SDS011;494;48.744;10.106;2024-02-21T04:07:52;923.83;;;806.33;;
1010;SDS011;494;48.744;10.106;2024-02-21T04:10:22;933.97;;;800.13;;
1010;SDS011;494;48.744;10.106;2024-02-21T04:12:50;995.57;;;816.83;;
1010;SDS011;494;48.744;10.106;2024-02-21T04:15:19;953.73;;;797.20;;
1010;SDS011;494;48.744;10.106;2024-02-21T04:17:48;1032.20;;;850.23;;
1010;SDS011;494;48.744;10.106;2024-02-21T04:20:17;949.70;;;802.00;;
1010;SDS011;494;48.744;10.106;2024-02-21T04:22:46;976.37;;;812.73;;
1010;SDS011;494;48.744;10.106;2024-02-21T04:25:16;1003.23;;;830.43;;
1010;SDS011;494;48.744;10.106;2024-02-21T04:27:45;1038.50;;;836.77;;
1010;SDS011;494;48.744;10.106;2024-02-21T04:30:14;1054.90;;;849.07;;
1010;SDS011;494;48.744;10.106;2024-02-21T04:32:44;1026.17;;;842.77;;
1010;SDS011;494;48.744;10.106;2024-02-21T04:35:12;1010.13;;;833.87;;
1010;SDS011;494;48.744;10.106;2024-02-21T04:37:41;1214.37;;;918.13;;
1010;SDS011;494;48.744;10.106;2024-02-21T04:40:11;1157.23;;;882.07;;
1010;SDS011;494;48.744;10.106;2024-02-21T04:42:42;1068.97;;;854.80;;
1010;SDS011;494;48.744;10.106;2024-02-21T04:45:11;1163.70;;;891.53;;
1010;SDS011;494;48.744;10.106;2024-02-21T04:47:42;1139.23;;;897.80;;
1010;SDS011;494;48.744;10.106;2024-02-21T04:50:11;1172.80;;;892.47;;
1010;SDS011;494;48.744;10.106;2024-02-21T04:52:40;1157.90;;;887.93;;
1010;SDS011;494;48.744;10.106;2024-02-21T04:55:09;1273.67;;;924.47;;
1010;SDS011;494;48.744;10.106;2024-02-21T04:57:37;1239.73;;;919.97;;
1010;SDS011;494;48.744;10.106;2024-02-21T05:00:10;1124.70;;;869.10;;
1010;SDS011;494;48.744;10.106;2024-02-21T05:02:40;1131.17;;;876.77;;
1010;SDS011;494;48.744;10.106;2024-02-21T05:05:09;1190.13;;;887.07;;
1010;SDS011;494;48.744;10.106;2024-02-21T05:07:38;1240.43;;;935.43;;
1010;SDS011;494;48.744;10.106;2024-02-21T05:10:07;1117.63;;;858.47;;
1010;SDS011;494;48.744;10.106;2024-02-21T05:12:37;1121.63;;;861.87;;
1010;SDS011;494;48.744;10.106;2024-02-21T05:15:09;1118.97;;;854.33;;
1010;SDS011;494;48.744;10.106;2024-02-21T05:17:38;1197.67;;;928.93;;
1010;SDS011;494;48.744;10.106;2024-02-21T05:20:07;1188.97;;;895.17;;
1010;SDS011;494;48.744;10.106;2024-02-21T05:22:38;1143.20;;;861.17;;
1010;SDS011;494;48.744;10.106;2024-02-21T05:25:08;1154.27;;;871.30;;
1010;SDS011;494;48.744;10.106;2024-02-21T05:27:37;1231.80;;;935.77;;
1010;SDS011;494;48.744;10.106;2024-02-21T05:30:08;1163.67;;;896.40;;
1010;SDS011;494;48.744;10.106;2024-02-21T05:32:38;1065.80;;;827.80;;
1010;SDS011;494;48.744;10.106;2024-02-21T05:35:07;1315.53;;;923.13;;
1010;SDS011;494;48.744;10.106;2024-02-21T05:37:36;1191.23;;;899.87;;
1010;SDS011;494;48.744;10.106;2024-02-21T05:40:06;1460.53;;;972.33;;
1010;SDS011;494;48.744;10.106;2024-02-21T05:42:36;1149.20;;;909.73;;
1010;SDS011;494;48.744;10.106;2024-02-21T05:45:05;1051.00;;;848.90;;
1010;SDS011;494;48.744;10.106;2024-02-21T05:47:36;1008.73;;;850.10;;
1010;SDS011;494;48.744;10.106;2024-02-21T05:50:05;997.17;;;843.30;;
1010;SDS011;494;48.744;10.106;2024-02-21T05:52:34;993.70;;;839.93;;
1010;SDS011;494;48.744;10.106;2024-02-21T05:55:06;1028.77;;;843.40;;
1010;SDS011;494;48.744;10.106;2024-02-21T05:57:36;1249.77;;;940.53;;
1010;SDS011;494;48.744;10.106;2024-02-21T06:00:05;996.63;;;839.67;;
1010;SDS011;494;48.744;10.106;2024-02-21T06:02:37;1003.77;;;844.30;;
1010;SDS011;494;48.744;10.106;2024-02-21T06:05:06;986.90;;;835.80;;
1010;SDS011;494;48.744;10.106;2024-02-21T06:07:36;1026.33;;;841.20;;
1010;SDS011;494;48.744;10.106;2024-02-21T06:10:06;991.23;;;819.03;;
1010;SDS011;494;48.744;10.106;2024-02-21T06:12:36;983.30;;;826.87;;
1010;SDS011;494;48.744;10.106;2024-02-21T06:15:06;964.30;;;825.17;;
1010;SDS011;494;48.744;10.106;2024-02-21T06:17:38;994.97;;;835.63;;
1010;SDS011;494;48.744;10.106;2024-02-21T06:20:08;934.43;;;803.77;;
1010;SDS011;494;48.744;10.106;2024-02-21T06:22:37;998.10;;;834.10;;
1010;SDS011;494;48.744;10.106;2024-02-21T06:25:06;1001.07;;;842.17;;
1010;SDS011;494;48.744;10.106;2024-02-21T06:27:35;993.13;;;828.27;;
1010;SDS011;494;48.744;10.106;2024-02-21T06:30:04;972.53;;;825.17;;
1010;SDS011;494;48.744;10.106;2024-02-21T06:36:44;1214.40;;;894.77;;
1010;SDS011;494;48.744;10.106;2024-02-21T06:39:31;1201.70;;;912.70;;
1010;SDS011;494;48.744;10.106;2024-02-21T06:42:00;1211.67;;;913.53;;
1010;SDS011;494;48.744;10.106;2024-02-21T06:44:30;1005.17;;;826.20;;
1010;SDS011;494;48.744;10.106;2024-02-21T06:47:03;1000.60;;;841.83;;
1010;SDS011;494;48.744;10.106;2024-02-21T06:49:32;999.27;;;833.43;;
1010;SDS011;494;48.744;10.106;2024-02-21T06:52:02;1060.60;;;870.10;;
1010;SDS011;494;48.744;10.106;2024-02-21T06:54:32;1104.23;;;881.53;;
1010;SDS011;494;48.744;10.106;2024-02-21T06:57:01;1010.17;;;836.90;;
1010;SDS011;494;48.744;10.106;2024-02-21T06:59:30;1081.10;;;873.77;;
1010;SDS011;494;48.744;10.106;2024-02-21T07:01:58;1125.20;;;870.83;;
1010;SDS011;494;48.744;10.106;2024-02-21T07:04:27;1058.73;;;841.13;;
1010;SDS011;494;48.744;10.106;2024-02-21T07:06:56;1233.50;;;907.53;;
1010;SDS011;494;48.744;10.106;2024-02-21T07:09:26;1250.33;;;904.93;;
1010;SDS011;494;48.744;10.106;2024-02-21T07:11:58;1242.40;;;907.73;;
1010;SDS011;494;48.744;10.106;2024-02-21T07:14:27;1111.63;;;844.87;;
1010;SDS011;494;48.744;10.106;2024-02-21T07:16:56;1368.20;;;974.47;;
1010;SDS011;494;48.744;10.106;2024-02-21T07:19:25;1331.73;;;954.90;;
1010;SDS011;494;48.744;10.106;2024-02-21T07:21:53;1194.30;;;880.80;;
1010;SDS011;494;48.744;10.106;2024-02-21T07:24:23;1161.30;;;893.70;;
1010;SDS011;494;48.744;10.106;2024-02-21T07:26:53;1344.43;;;927.73;;
1010;SDS011;494;48.744;10.106;2024-02-21T07:29:22;1206.17;;;880.10;;
1010;SDS011;494;48.744;10.106;2024-02-21T07:31:51;1317.10;;;902.17;;
1010;SDS011;494;48.744;10.106;2024-02-21T07:34:20;1360.30;;;931.43;;
1010;SDS011;494;48.744;10.106;2024-02-21T07:36:49;1268.57;;;884.60;;
1010;SDS011;494;48.744;10.106;2024-02-21T07:39:17;1235.13;;;886.43;;
1010;SDS011;494;48.744;10.106;2024-02-21T07:41:46;1281.77;;;906.30;;
1010;SDS011;494;48.744;10.106;2024-02-21T07:44:17;1342.30;;;913.50;;
1010;SDS011;494;48.744;10.106;2024-02-21T07:46:45;1376.23;;;932.63;;
1010;SDS011;494;48.744;10.106;2024-02-21T07:49:14;1286.53;;;867.77;;
1010;SDS011;494;48.744;10.106;2024-02-21T07:51:42;1315.97;;;886.77;;
1010;SDS011;494;48.744;10.106;2024-02-21T07:54:11;1224.37;;;845.83;;
1010;SDS011;494;48.744;10.106;2024-02-21T07:56:43;1323.57;;;885.50;;
1010;SDS011;494;48.744;10.106;2024-02-21T07:59:11;1191.77;;;842.80;;
1010;SDS011;494;48.744;10.106;2024-02-21T08:01:42;1335.23;;;893.17;;
1010;SDS011;494;48.744;10.106;2024-02-21T08:04:11;1248.63;;;840.43;;
1010;SDS011;494;48.744;10.106;2024-02-21T08:06:41;1332.90;;;898.70;;
1010;SDS011;494;48.744;10.106;2024-02-21T08:09:10;1342.67;;;910.00;;
1010;SDS011;494;48.744;10.106;2024-02-21T08:11:38;1083.90;;;826.87;;
1010;SDS011;494;48.744;10.106;2024-02-21T08:14:07;1154.57;;;812.53;;
1010;SDS011;494;48.744;10.106;2024-02-21T08:16:36;1016.87;;;803.73;;
1010;SDS011;494;48.744;10.106;2024-02-21T08:19:16;1142.47;;;801.43;;
1010;SDS011;494;48.744;10.106;2024-02-21T08:21:45;1045.80;;;785.10;;
1010;SDS011;494;48.744;10.106;2024-02-21T08:24:14;1009.67;;;775.97;;
1010;SDS011;494;48.744;10.106;2024-02-21T08:26:43;838.90;;;719.33;;
1010;SDS011;494;48.744;10.106;2024-02-21T08:29:12;947.67;;;780.17;;
1010;SDS011;494;48.744;10.106;2024-02-21T08:31:41;910.97;;;780.40;;
1010;SDS011;494;48.744;10.106;2024-02-21T08:34:10;937.10;;;762.17;;
1010;SDS011;494;48.744;10.106;2024-02-21T08:36:42;785.70;;;667.77;;
1010;SDS011;494;48.744;10.106;2024-02-21T08:39:11;701.33;;;628.37;;
1010;SDS011;494;48.744;10.106;2024-02-21T08:41:43;728.00;;;651.97;;
1010;SDS011;494;48.744;10.106;2024-02-21T08:44:23;709.40;;;635.63;;
1010;SDS011;494;48.744;10.106;2024-02-21T08:46:53;663.83;;;594.53;;
1010;SDS011;494;48.744;10.106;2024-02-21T08:49:22;650.83;;;582.93;;
1010;SDS011;494;48.744;10.106;2024-02-21T08:52:01;638.27;;;572.30;;
1010;SDS011;494;48.744;10.106;2024-02-21T08:54:30;619.37;;;557.67;;
1010;SDS011;494;48.744;10.106;2024-02-21T08:56:59;564.50;;;508.13;;
1010;SDS011;494;48.744;10.106;2024-02-21T08:59:27;581.23;;;521.43;;
1010;SDS011;494;48.744;10.106;2024-02-21T09:01:56;647.93;;;583.03;;
1010;SDS011;494;48.744;10.106;2024-02-21T09:04:25;634.33;;;571.30;;
1010;SDS011;494;48.744;10.106;2024-02-21T09:06:54;559.60;;;502.83;;
1010;SDS011;494;48.744;10.106;2024-02-21T09:09:24;593.03;;;535.17;;
1010;SDS011;494;48.744;10.106;2024-02-21T09:11:55;525.80;;;473.73;;
1010;SDS011;494;48.744;10.106;2024-02-21T09:14:24;543.87;;;490.37;;
1010;SDS011;494;48.744;10.106;2024-02-21T09:16:52;485.60;;;439.13;;
1010;SDS011;494;48.744;10.106;2024-02-21T09:19:22;453.10;;;409.03;;
1010;SDS011;494;48.744;10.106;2024-02-21T09:21:51;417.10;;;377.00;;
1010;SDS011;494;48.744;10.106;2024-02-21T09:24:20;408.70;;;369.63;;
1010;SDS011;494;48.744;10.106;2024-02-21T09:26:51;409.73;;;371.00;;
1010;SDS011;494;48.744;10.106;2024-02-21T09:29:19;412.83;;;374.53;;
1010;SDS011;494;48.744;10.106;2024-02-21T09:31:53;364.33;;;330.17;;
1010;SDS011;494;48.744;10.106;2024-02-21T09:34:22;405.60;;;369.17;;
1010;SDS011;494;48.744;10.106;2024-02-21T09:36:50;371.87;;;336.20;;
1010;SDS011;494;48.744;10.106;2024-02-21T09:39:19;387.07;;;351.13;;
1010;SDS011;494;48.744;10.106;2024-02-21T09:41:53;396.13;;;359.40;;
1010;SDS011;494;48.744;10.106;2024-02-21T09:44:29;507.17;;;459.37;;
1010;SDS011;494;48.744;10.106;2024-02-21T09:47:04;427.43;;;388.23;;
1010;SDS011;494;48.744;10.106;2024-02-21T09:49:40;379.00;;;343.67;;
1010;SDS011;494;48.744;10.106;2024-02-21T09:52:11;439.53;;;398.33;;
1010;SDS011;494;48.744;10.106;2024-02-21T09:54:42;414.73;;;375.03;;
1010;SDS011;494;48.744;10.106;2024-02-21T09:57:13;389.40;;;350.80;;
1010;SDS011;494;48.744;10.106;2024-02-21T09:59:42;425.67;;;384.13;;
1010;SDS011;494;48.744;10.106;2024-02-21T10:02:12;409.90;;;370.27;;
1010;SDS011;494;48.744;10.106;2024-02-21T10:04:41;395.47;;;356.53;;
1010;SDS011;494;48.744;10.106;2024-02-21T10:07:09;403.37;;;364.33;;
1010;SDS011;494;48.744;10.106;2024-02-21T10:09:38;410.63;;;371.17;;
1010;SDS011;494;48.744;10.106;2024-02-21T10:12:09;338.07;;;305.30;;
1010;SDS011;494;48.744;10.106;2024-02-21T10:14:41;412.70;;;373.80;;
1010;SDS011;494;48.744;10.106;2024-02-21T10:17:15;432.47;;;391.33;;
1010;SDS011;494;48.744;10.106;2024-02-21T10:19:45;444.73;;;402.63;;
1010;SDS011;494;48.744;10.106;2024-02-21T10:22:15;429.33;;;388.40;;
1010;SDS011;494;48.744;10.106;2024-02-21T10:24:47;386.03;;;348.27;;
1010;SDS011;494;48.744;10.106;2024-02-21T10:27:15;410.27;;;371.23;;
1010;SDS011;494;48.744;10.106;2024-02-21T10:29:49;382.40;;;344.97;;
1010;SDS011;494;48.744;10.106;2024-02-21T10:32:18;385.37;;;348.60;;
1010;SDS011;494;48.744;10.106;2024-02-21T10:34:47;427.73;;;387.73;;
1010;SDS011;494;48.744;10.106;2024-02-21T10:37:18;400.50;;;362.43;;
1010;SDS011;494;48.744;10.106;2024-02-21T10:39:49;409.33;;;372.60;;
1010;SDS011;494;48.744;10.106;2024-02-21T10:42:18;412.27;;;374.10;;
1010;SDS011;494;48.744;10.106;2024-02-21T10:44:51;410.07;;;372.03;;
1010;SDS011;494;48.744;10.106;2024-02-21T10:47:22;401.63;;;363.33;;
1010;SDS011;494;48.744;10.106;2024-02-21T10:49:56;387.10;;;350.90;;
1010;SDS011;494;48.744;10.106;2024-02-21T10:52:33;357.53;;;325.70;;
1010;SDS011;494;48.744;10.106;2024-02-21T10:55:20;364.90;;;333.17;;
1010;SDS011;494;48.744;10.106;2024-02-21T10:58:02;335.63;;;305.90;;
1010;SDS011;494;48.744;10.106;2024-02-21T11:00:34;398.30;;;363.77;;
1010;SDS011;494;48.744;10.106;2024-02-21T11:03:03;379.07;;;346.20;;
1010;SDS011;494;48.744;10.106;2024-02-21T11:05:33;343.83;;;314.33;;
1010;SDS011;494;48.744;10.106;2024-02-21T11:08:03;349.33;;;319.27;;
1010;SDS011;494;48.744;10.106;2024-02-21T11:10:36;387.53;;;353.87;;
1010;SDS011;494;48.744;10.106;2024-02-21T11:13:07;355.60;;;324.77;;
1010;SDS011;494;48.744;10.106;2024-02-21T11:15:38;395.63;;;361.50;;
1010;SDS011;494;48.744;10.106;2024-02-21T11:18:07;362.20;;;330.77;;
1010;SDS011;494;48.744;10.106;2024-02-21T11:20:36;409.47;;;374.13;;
1010;SDS011;494;48.744;10.106;2024-02-21T11:23:05;361.57;;;329.60;;
1010;SDS011;494;48.744;10.106;2024-02-21T11:25:34;390.77;;;356.87;;
1010;SDS011;494;48.744;10.106;2024-02-21T11:28:03;408.23;;;373.00;;
1010;SDS011;494;48.744;10.106;2024-02-21T11:30:35;409.73;;;374.50;;
1010;SDS011;494;48.744;10.106;2024-02-21T11:33:06;397.47;;;363.23;;
1010;SDS011;494;48.744;10.106;2024-02-21T11:35:35;459.87;;;419.43;;
1010;SDS011;494;48.744;10.106;2024-02-21T11:38:08;435.47;;;397.27;;
1010;SDS011;494;48.744;10.106;2024-02-21T11:40:43;432.47;;;395.00;;
1010;SDS011;494;48.744;10.106;2024-02-21T11:43:14;422.20;;;384.23;;
1010;SDS011;494;48.744;10.106;2024-02-21T11:45:43;375.50;;;341.03;;
1010;SDS011;494;48.744;10.106;2024-02-21T11:48:14;427.10;;;388.63;;
1010;SDS011;494;48.744;10.106;2024-02-21T11:50:52;410.67;;;373.97;;
1010;SDS011;494;48.744;10.106;2024-02-21T11:53:22;410.00;;;373.40;;
1010;SDS011;494;48.744;10.106;2024-02-21T11:55:53;396.00;;;361.87;;
1010;SDS011;494;48.744;10.106;2024-02-21T11:58:23;405.03;;;371.00;;
1010;SDS011;494;48.744;10.106;2024-02-21T12:00:53;411.70;;;377.17;;
1010;SDS011;494;48.744;10.106;2024-02-21T12:03:23;408.37;;;373.93;;
1010;SDS011;494;48.744;10.106;2024-02-21T12:05:52;405.30;;;372.47;;
1010;SDS011;494;48.744;10.106;2024-02-21T12:08:24;388.30;;;356.43;;
1010;SDS011;494;48.744;10.106;2024-02-21T12:10:52;366.93;;;336.97;;
1010;SDS011;494;48.744;10.106;2024-02-21T12:13:22;404.60;;;371.97;;
1010;SDS011;494;48.744;10.106;2024-02-21T12:15:51;381.87;;;350.33;;
1010;SDS011;494;48.744;10.106;2024-02-21T12:18:22;365.17;;;333.97;;
1010;SDS011;494;48.744;10.106;2024-02-21T12:20:52;374.87;;;343.93;;
1010;SDS011;494;48.744;10.106;2024-02-21T12:23:26;371.10;;;340.67;;
1010;SDS011;494;48.744;10.106;2024-02-21T12:25:55;405.90;;;372.13;;
1010;SDS011;494;48.744;10.106;2024-02-21T12:28:24;419.17;;;384.73;;
1010;SDS011;494;48.744;10.106;2024-02-21T12:30:52;422.17;;;387.00;;
1010;SDS011;494;48.744;10.106;2024-02-21T12:33:23;404.23;;;370.37;;
1010;SDS011;494;48.744;10.106;2024-02-21T12:35:52;394.10;;;361.30;;
1010;SDS011;494;48.744;10.106;2024-02-21T12:38:22;396.57;;;362.67;;
1010;SDS011;494;48.744;10.106;2024-02-21T12:40:51;413.47;;;378.77;;
1010;SDS011;494;48.744;10.106;2024-02-21T12:43:20;393.23;;;360.37;;
1010;SDS011;494;48.744;10.106;2024-02-21T12:45:49;377.17;;;344.17;;
1010;SDS011;494;48.744;10.106;2024-02-21T12:48:17;378.97;;;345.77;;
1010;SDS011;494;48.744;10.106;2024-02-21T12:50:49;383.17;;;349.40;;
1010;SDS011;494;48.744;10.106;2024-02-21T12:53:19;381.00;;;347.57;;
1010;SDS011;494;48.744;10.106;2024-02-21T12:55:58;383.23;;;349.30;;
1010;SDS011;494;48.744;10.106;2024-02-21T12:58:27;392.60;;;358.80;;
1010;SDS011;494;48.744;10.106;2024-02-21T13:00:58;397.27;;;363.37;;
1010;SDS011;494;48.744;10.106;2024-02-21T13:03:27;393.13;;;358.53;;
1010;SDS011;494;48.744;10.106;2024-02-21T13:06:00;365.87;;;333.27;;
1010;SDS011;494;48.744;10.106;2024-02-21T13:08:29;401.13;;;367.47;;
1010;SDS011;494;48.744;10.106;2024-02-21T13:11:01;405.97;;;370.73;;
1010;SDS011;494;48.744;10.106;2024-02-21T13:13:29;395.20;;;361.13;;
1010;SDS011;494;48.744;10.106;2024-02-21T13:15:59;410.33;;;375.30;;
1010;SDS011;494;48.744;10.106;2024-02-21T13:18:30;383.63;;;351.43;;
1010;SDS011;494;48.744;10.106;2024-02-21T13:21:08;397.90;;;365.20;;
1010;SDS011;494;48.744;10.106;2024-02-21T13:23:40;414.80;;;380.13;;
1010;SDS011;494;48.744;10.106;2024-02-21T13:26:11;403.53;;;370.13;;
1010;SDS011;494;48.744;10.106;2024-02-21T13:28:43;392.00;;;359.03;;
1010;SDS011;494;48.744;10.106;2024-02-21T13:31:12;381.53;;;349.43;;
1010;SDS011;494;48.744;10.106;2024-02-21T13:33:44;419.07;;;384.57;;
1010;SDS011;494;48.744;10.106;2024-02-21T13:36:15;415.43;;;381.17;;
1010;SDS011;494;48.744;10.106;2024-02-21T13:38:44;401.93;;;368.80;;
1010;SDS011;494;48.744;10.106;2024-02-21T13:41:17;408.63;;;374.67;;
1010;SDS011;494;48.744;10.106;2024-02-21T13:43:48;413.07;;;378.80;;
1010;SDS011;494;48.744;10.106;2024-02-21T13:46:23;410.57;;;376.83;;
1010;SDS011;494;48.744;10.106;2024-02-21T13:49:02;407.93;;;374.20;;
1010;SDS011;494;48.744;10.106;2024-02-21T13:51:35;415.97;;;381.33;;
1010;SDS011;494;48.744;10.106;2024-02-21T13:54:04;428.63;;;393.23;;
1010;SDS011;494;48.744;10.106;2024-02-21T13:56:36;388.93;;;356.80;;
1010;SDS011;494;48.744;10.106;2024-02-21T13:59:04;391.10;;;357.93;;
1010;SDS011;494;48.744;10.106;2024-02-21T14:01:34;393.53;;;360.10;;
1010;SDS011;494;48.744;10.106;2024-02-21T14:04:04;389.70;;;356.50;;
1010;SDS011;494;48.744;10.106;2024-02-21T14:06:32;436.37;;;400.27;;
1010;SDS011;494;48.744;10.106;2024-02-21T14:09:26;415.43;;;380.60;;
1010;SDS011;494;48.744;10.106;2024-02-21T14:12:12;493.83;;;453.03;;
1010;SDS011;494;48.744;10.106;2024-02-21T14:14:43;529.13;;;485.87;;
1010;SDS011;494;48.744;10.106;2024-02-21T14:17:11;576.00;;;529.03;;
1010;SDS011;494;48.744;10.106;2024-02-21T14:19:42;550.93;;;505.53;;
1010;SDS011;494;48.744;10.106;2024-02-21T14:22:12;552.40;;;505.87;;
1010;SDS011;494;48.744;10.106;2024-02-21T14:24:41;538.17;;;491.57;;
1010;SDS011;494;48.744;10.106;2024-02-21T14:27:10;514.80;;;469.37;;
1010;SDS011;494;48.744;10.106;2024-02-21T14:29:39;549.33;;;501.00;;
1010;SDS011;494;48.744;10.106;2024-02-21T14:32:10;515.93;;;470.33;;
1010;SDS011;494;48.744;10.106;2024-02-21T14:34:41;473.97;;;431.23;;
1010;SDS011;494;48.744;10.106;2024-02-21T14:37:09;354.43;;;321.27;;
1010;SDS011;494;48.744;10.106;2024-02-21T14:39:58;428.37;;;388.47;;